Time;durP1;ratioP1;P1;durP2;ratioP2;P2;SDS_P1;SDS_P2;PMS_P1;PMS_P2;Temp;Humidity;BMP_temperature;BMP_pressure;BME280_temperature;BME280_humidity;BME280_pressure;Samples;Min_cycle;Max_cycle;Signal;HPM_P1;HPM_P2
2022/05/28 06:48:49;;;;;;;3.28;1.17;;;;;;;19.34;46.08;99407.28;5153276;27;20418;-66
2022/05/28 06:51:18;;;;;;;0.80;0.80;;;;;;;19.77;46.37;99447.84;5132181;28;20074;-67
2022/05/28 06:53:50;;;;;;;0.43;0.43;;;;;;;19.96;46.39;99441.81;5131808;28;20051;-66
2022/05/28 06:56:20;;;;;;;0.70;0.60;;;;;;;19.92;46.06;99440.25;5131615;28;20404;-68
2022/05/28 06:58:49;;;;;;;0.50;0.50;;;;;;;19.87;45.99;99439.63;5131594;28;20043;-70
2022/05/28 07:01:18;;;;;;;1.23;1.13;;;;;;;19.59;46.59;99446.84;5131627;28;20537;-67
2022/05/28 07:03:49;;;;;;;0.50;0.50;;;;;;;19.56;46.17;99451.31;5131907;28;20469;-67
2022/05/28 07:06:18;;;;;;;1.08;0.98;;;;;;;19.59;46.18;99452.03;5131930;28;20050;-67
2022/05/28 07:08:47;;;;;;;0.68;0.68;;;;;;;19.72;46.12;99445.47;5131382;28;20104;-67
2022/05/28 07:11:16;;;;;;;0.97;0.87;;;;;;;19.87;45.79;99434.44;5131828;28;20043;-67
2022/05/28 07:13:45;;;;;;;0.50;0.50;;;;;;;19.99;45.76;99446.03;5131718;28;20043;-67
2022/05/28 07:16:14;;;;;;;0.60;0.60;;;;;;;20.04;46.02;99447.53;5131264;28;20040;-68
2022/05/28 07:18:44;;;;;;;0.77;0.70;;;;;;;20.06;45.99;99442.25;5131655;28;20435;-70
2022/05/28 07:21:14;;;;;;;1.13;1.02;;;;;;;20.08;45.82;99431.84;5131565;28;20031;-68
2022/05/28 07:23:43;;;;;;;0.65;0.65;;;;;;;20.15;44.18;99431.53;5131518;28;20047;-68
2022/05/28 07:26:15;;;;;;;0.70;0.70;;;;;;;20.39;42.84;99433.06;5131528;28;20061;-70
2022/05/28 07:28:45;;;;;;;0.63;0.63;;;;;;;20.62;42.86;99437.19;5131078;28;20053;-68
2022/05/28 07:31:17;;;;;;;0.82;0.82;;;;;;;20.59;41.58;99433.00;5131012;28;20101;-69
2022/05/28 07:33:47;;;;;;;0.70;0.70;;;;;;;20.52;43.02;99435.94;5131058;28;20122;-67
2022/05/28 07:36:20;;;;;;;7.50;2.42;;;;;;;20.61;43.17;99435.53;5131346;28;20032;-69
2022/05/28 07:38:50;;;;;;;1.90;1.58;;;;;;;20.58;43.20;99430.47;5131178;28;20482;-67
2022/05/28 07:41:22;;;;;;;0.70;0.65;;;;;;;20.71;43.02;99439.38;5130866;28;20130;-66
2022/05/28 07:43:53;;;;;;;5.38;4.22;;;;;;;20.88;42.20;99447.22;5130844;28;20051;-71
2022/05/28 07:46:24;;;;;;;1.00;0.90;;;;;;;20.70;42.37;99442.91;5130552;28;20134;-68
2022/05/28 07:48:55;;;;;;;1.08;0.98;;;;;;;20.55;42.26;99443.56;5130705;28;20039;-68
2022/05/28 07:51:26;;;;;;;0.50;0.50;;;;;;;20.47;41.68;99440.47;5130968;28;20126;-66
2022/05/28 07:53:55;;;;;;;1.13;1.08;;;;;;;20.58;41.33;99443.44;5112486;28;20047;-66
2022/05/28 07:56:24;;;;;;;1.40;0.75;;;;;;;20.69;41.74;99436.84;5130818;28;20386;-67
2022/05/28 07:58:54;;;;;;;0.52;0.52;;;;;;;20.98;42.08;99447.63;5123794;28;20126;-70
2022/05/28 08:01:25;;;;;;;1.38;1.23;;;;;;;20.91;41.47;99448.84;5117407;28;20097;-67
2022/05/28 08:03:55;;;;;;;0.88;0.88;;;;;;;20.39;41.51;99445.19;5116807;28;20058;-67
2022/05/28 08:06:26;;;;;;;1.15;1.05;;;;;;;20.13;41.90;99445.44;5116729;28;20130;-69
2022/05/28 08:08:55;;;;;;;0.85;0.80;;;;;;;20.11;42.90;99455.03;5116908;28;20392;-69
2022/05/28 08:11:25;;;;;;;0.88;0.70;;;;;;;20.19;42.34;99445.16;5116660;28;20113;-66
2022/05/28 08:13:55;;;;;;;0.60;0.60;;;;;;;20.27;40.91;99448.31;5116892;28;20040;-69
2022/05/28 08:16:24;;;;;;;0.50;0.50;;;;;;;20.27;39.18;99443.97;5116558;28;20096;-67
2022/05/28 08:18:53;;;;;;;0.60;0.60;;;;;;;20.53;38.67;99453.19;5116390;28;20051;-67
2022/05/28 08:24:02;;;;;;;0.50;0.50;;;;;;;20.90;38.52;99454.97;5116540;28;20080;-68
2022/05/28 08:26:31;;;;;;;2.05;1.60;;;;;;;21.09;39.03;99455.81;5116385;28;20032;-68
2022/05/28 08:29:00;;;;;;;3.88;1.13;;;;;;;21.08;38.33;99459.31;5116349;28;20126;-68
2022/05/28 08:31:29;;;;;;;0.90;0.73;;;;;;;21.08;37.96;99442.00;5116453;28;20040;-68
2022/05/28 08:33:59;;;;;;;0.50;0.50;;;;;;;21.20;37.54;99448.34;5116190;28;20050;-67
2022/05/28 08:36:31;;;;;;;1.02;0.93;;;;;;;21.34;37.21;99462.34;5116489;28;20057;-68
2022/05/28 08:39:01;;;;;;;0.50;0.50;;;;;;;21.44;37.27;99457.56;5116092;28;20040;-67
2022/05/28 08:41:38;;;;;;;0.75;0.75;;;;;;;21.45;36.94;99458.41;5116433;28;20045;-68
2022/05/28 08:44:30;;;;;;;0.65;0.65;;;;;;;21.38;37.00;99469.06;5115977;28;20043;-68
2022/05/28 08:47:12;;;;;;;0.50;0.50;;;;;;;21.43;37.39;99465.44;5115725;28;20055;-67
2022/05/28 08:49:41;;;;;;;0.63;0.50;;;;;;;21.49;36.87;99449.53;5115764;28;20388;-69
2022/05/28 08:52:14;;;;;;;0.70;0.70;;;;;;;21.75;35.77;99467.28;5116126;28;20497;-68
2022/05/28 08:54:56;;;;;;;0.65;0.65;;;;;;;21.65;34.75;99479.03;5116168;28;20043;-68
2022/05/28 08:57:43;;;;;;;0.40;0.40;;;;;;;21.69;35.08;99463.22;5116180;28;20047;-69
2022/05/28 09:00:14;;;;;;;1.13;0.98;;;;;;;21.87;35.91;99466.72;5115695;28;20090;-69
2022/05/28 09:02:48;;;;;;;0.57;0.57;;;;;;;22.13;35.42;99448.03;5115994;28;20130;-69
2022/05/28 09:05:24;;;;;;;0.63;0.60;;;;;;;22.43;35.04;99435.19;5116092;28;20100;-69
2022/05/28 09:07:57;;;;;;;0.60;0.60;;;;;;;22.65;35.10;99446.19;5115917;28;20090;-68
2022/05/28 09:10:33;;;;;;;1.13;1.02;;;;;;;22.64;33.73;99444.50;5114504;28;20131;-68
2022/05/28 09:13:09;;;;;;;0.47;0.47;;;;;;;22.54;33.06;99438.06;5115443;28;20047;-67
2022/05/28 09:15:39;;;;;;;0.90;0.45;;;;;;;22.28;33.13;99431.63;5115458;28;20048;-66
2022/05/28 09:18:13;;;;;;;1.17;1.08;;;;;;;21.91;33.29;99452.63;5115387;28;20058;-67
2022/05/28 09:20:44;;;;;;;0.82;0.60;;;;;;;21.32;33.70;99438.22;5115197;28;20523;-66
2022/05/28 09:23:14;;;;;;;0.70;0.60;;;;;;;21.18;34.74;99453.63;5115594;28;20519;-66
2022/05/28 09:25:46;;;;;;;0.70;0.70;;;;;;;20.92;35.16;99458.31;5115333;28;20427;-66
2022/05/28 09:28:31;;;;;;;0.52;0.52;;;;;;;21.07;35.77;99448.06;5115089;28;20081;-66
2022/05/28 09:31:09;;;;;;;0.50;0.50;;;;;;;21.41;35.39;99452.50;5114998;28;20052;-67
2022/05/28 09:33:55;;;;;;;0.60;0.60;;;;;;;21.65;35.53;99445.28;5115168;28;20048;-66
2022/05/28 09:36:33;;;;;;;0.80;0.80;;;;;;;21.65;35.07;99416.69;5115172;28;20130;-67
2022/05/28 09:39:16;;;;;;;0.60;0.60;;;;;;;21.95;33.57;99434.19;5115072;28;20040;-67
2022/05/28 09:41:58;;;;;;;0.60;0.60;;;;;;;22.01;33.16;99433.06;5114969;28;20155;-69
2022/05/28 09:44:41;;;;;;;0.68;0.68;;;;;;;22.19;33.86;99442.53;5114822;28;20043;-68
2022/05/28 09:47:13;;;;;;;0.90;0.90;;;;;;;22.37;34.05;99440.72;5115055;28;20044;-68
2022/05/28 09:49:51;;;;;;;0.80;0.80;;;;;;;22.23;34.24;99433.63;5096503;28;20040;-66
2022/05/28 09:52:26;;;;;;;0.60;0.60;;;;;;;22.24;33.50;99430.13;5114606;28;20130;-67
2022/05/28 09:55:13;;;;;;;1.05;0.95;;;;;;;22.04;33.56;99443.31;5114746;28;20122;-67
2022/05/28 09:57:52;;;;;;;1.30;1.02;;;;;;;21.73;34.52;99448.34;5114654;28;20048;-69
2022/05/28 10:00:23;;;;;;;7.18;2.45;;;;;;;21.59;34.86;99440.38;5114621;28;20048;-67
2022/05/28 10:05:43;;;;;;;1.40;1.30;;;;;;;21.35;35.63;99438.06;5114536;28;20067;-67
2022/05/28 10:08:14;;;;;;;0.65;0.65;;;;;;;21.47;35.90;99446.19;5114414;28;20488;-67
2022/05/28 10:10:54;;;;;;;0.70;0.70;;;;;;;21.65;36.61;99437.47;5114333;28;20042;-66
2022/05/28 10:13:25;;;;;;;8.55;2.80;;;;;;;22.00;36.86;99423.59;5114678;28;20446;-67
2022/05/28 10:15:57;;;;;;;1.05;0.90;;;;;;;22.35;35.94;99413.94;5114362;28;20063;-68
2022/05/28 10:18:34;;;;;;;0.50;0.50;;;;;;;22.53;35.12;99421.59;5114403;28;20071;-67
2022/05/28 10:21:09;;;;;;;0.82;0.80;;;;;;;22.83;35.71;99423.50;5096069;28;20601;-68
2022/05/28 10:23:40;;;;;;;1.25;1.13;;;;;;;22.95;34.51;99409.81;5114486;28;20039;-67
2022/05/28 10:26:19;;;;;;;0.65;0.65;;;;;;;22.78;32.65;99421.16;5114159;28;20054;-69
2022/05/28 10:28:55;;;;;;;0.60;0.60;;;;;;;22.72;32.45;99425.88;5112918;28;20040;-67
2022/05/28 10:31:30;;;;;;;0.50;0.50;;;;;;;22.38;32.52;99426.78;5114645;28;20489;-70
2022/05/28 10:33:59;;;;;;;0.80;0.70;;;;;;;22.03;33.63;99436.41;5114083;28;20047;-67
2022/05/28 10:36:30;;;;;;;0.55;0.55;;;;;;;21.94;34.12;99432.53;5113865;28;20036;-69
2022/05/28 10:39:14;;;;;;;0.60;0.60;;;;;;;21.66;34.18;99437.41;5114020;28;20138;-69
2022/05/28 10:41:52;;;;;;;4.00;1.10;;;;;;;21.80;33.47;99428.91;5114267;28;20427;-70
2022/05/28 10:44:23;;;;;;;0.60;0.60;;;;;;;22.07;34.00;99427.56;5114213;28;20092;-67
2022/05/28 10:47:09;;;;;;;0.52;0.52;;;;;;;22.01;33.24;99433.06;5113941;28;20050;-68
2022/05/28 10:49:48;;;;;;;0.77;0.77;;;;;;;21.88;32.96;99432.84;5113728;28;20051;-66
2022/05/28 10:52:29;;;;;;;0.50;0.50;;;;;;;21.73;32.68;99422.34;5095739;28;20051;-68
2022/05/28 10:55:06;;;;;;;1.10;1.00;;;;;;;21.58;32.57;99430.91;5096008;28;20434;-68
2022/05/28 10:57:56;;;;;;;0.60;0.60;;;;;;;21.84;34.09;99426.13;5113860;28;20366;-68
2022/05/28 11:00:32;;;;;;;1.13;0.90;;;;;;;22.16;33.47;99426.22;5114144;28;20046;-66
2022/05/28 11:03:23;;;;;;;1.67;1.40;;;;;;;22.29;32.78;99420.31;5114129;28;20134;-67
2022/05/28 11:06:22;;;;;;;16.50;6.93;;;;;;;22.18;32.84;99427.84;5113615;28;20047;-69
2022/05/28 11:09:02;;;;;;;2.05;1.85;;;;;;;22.33;33.38;99419.25;5097660;28;20047;-67
2022/05/28 11:11:45;;;;;;;0.60;0.60;;;;;;;22.55;31.55;99419.78;5114003;28;20050;-66
2022/05/28 11:14:31;;;;;;;0.40;0.40;;;;;;;22.65;31.36;99413.16;5113604;28;20508;-68
2022/05/28 11:17:15;;;;;;;0.65;0.65;;;;;;;22.85;31.52;99432.06;5114080;28;20143;-67
2022/05/28 11:20:02;;;;;;;1.17;0.80;;;;;;;23.10;31.51;99416.78;5113932;28;20044;-68
2022/05/28 11:23:01;;;;;;;0.63;0.63;;;;;;;23.27;31.93;99416.69;5113611;28;20055;-67
2022/05/28 11:25:46;;;;;;;0.50;0.50;;;;;;;23.14;29.23;99402.66;5113460;28;20101;-69
2022/05/28 11:28:42;;;;;;;0.40;0.40;;;;;;;22.85;27.94;99406.03;5113947;28;20050;-68
2022/05/28 11:31:24;;;;;;;0.47;0.47;;;;;;;22.88;28.64;99418.91;5113724;28;20050;-67
2022/05/28 11:33:56;;;;;;;0.50;0.50;;;;;;;22.93;29.27;99414.28;5114873;28;20442;-66
2022/05/28 11:36:29;;;;;;;0.65;0.65;;;;;;;22.99;29.97;99413.91;5117387;28;20048;-68
2022/05/28 11:39:06;;;;;;;0.60;0.60;;;;;;;23.15;30.57;99409.56;5117331;28;20101;-70
2022/05/28 11:41:37;;;;;;;0.50;0.50;;;;;;;22.98;30.13;99407.06;5117616;28;20051;-67
2022/05/28 11:44:13;;;;;;;0.50;0.50;;;;;;;22.73;29.28;99401.50;5117568;28;20043;-67
2022/05/28 11:46:48;;;;;;;0.70;0.70;;;;;;;22.48;29.68;99400.19;5116839;28;20117;-69
2022/05/28 11:52:13;;;;;;;0.50;0.50;;;;;;;22.44;29.44;99364.88;5117383;28;20126;-67
2022/05/28 11:54:46;;;;;;;0.60;0.60;;;;;;;23.02;30.34;99403.34;5117390;28;20442;-69
2022/05/28 11:57:24;;;;;;;11.55;2.88;;;;;;;23.11;29.79;99392.41;5117188;28;20063;-66
2022/05/28 11:59:53;;;;;;;0.57;0.57;;;;;;;;;;5116829;28;20047;-69
2022/05/28 12:02:26;;;;;;;0.70;0.70;;;;;;;23.21;29.77;99388.38;5117179;28;20398;-66
2022/05/28 12:04:57;;;;;;;1.20;0.90;;;;;;;23.16;29.94;99387.78;5116835;28;20047;-67
2022/05/28 12:07:38;;;;;;;0.65;0.60;;;;;;;23.03;30.13;99358.16;5116854;28;20040;-66
2022/05/28 12:10:29;;;;;;;0.50;0.50;;;;;;;23.27;30.46;99380.22;5116852;28;20039;-66
2022/05/28 12:13:01;;;;;;;0.47;0.47;;;;;;;23.34;30.54;99392.81;5116423;28;20439;-68
2022/05/28 12:15:34;;;;;;;0.50;0.50;;;;;;;23.40;29.74;99389.03;5116953;28;20456;-67
2022/05/28 12:18:07;;;;;;;0.50;0.50;;;;;;;23.39;29.69;99389.97;5116892;28;20044;-68
2022/05/28 12:20:51;;;;;;;0.60;0.60;;;;;;;23.46;30.14;99357.41;5116666;28;20044;-68
2022/05/28 12:23:33;;;;;;;0.40;0.40;;;;;;;23.71;29.87;99373.28;5116498;28;20039;-69
2022/05/28 12:26:05;;;;;;;1.20;0.75;;;;;;;23.73;29.39;99379.22;5116429;28;20139;-69
2022/05/28 12:28:45;;;;;;;0.40;0.40;;;;;;;23.54;29.77;99368.22;5116397;28;20055;-67
2022/05/28 12:31:27;;;;;;;0.60;0.60;;;;;;;23.43;29.54;99383.63;5116335;28;20036;-68
2022/05/28 12:33:58;;;;;;;0.40;0.40;;;;;;;23.13;28.49;99380.16;5116317;28;20036;-69
2022/05/28 12:36:41;;;;;;;0.60;0.60;;;;;;;23.01;29.31;99384.28;5116502;28;20061;-68
2022/05/28 12:39:30;;;;;;;0.47;0.47;;;;;;;22.99;29.93;99383.53;5116498;28;20050;-69
2022/05/28 12:42:01;;;;;;;0.43;0.43;;;;;;;22.70;30.71;99313.22;5116174;28;20105;-68
2022/05/28 12:44:31;;;;;;;3.90;0.93;;;;;;;23.08;29.79;99379.59;5115926;28;20039;-68
2022/05/28 12:47:00;;;;;;;;;;;;;;;23.00;29.62;99374.81;5116337;28;20047;-68
2022/05/28 12:49:31;;;;;;;;;;;;;;;23.05;30.24;99377.16;5116641;28;19919;-69
2022/05/28 12:52:23;;;;;;;0.57;0.57;;;;;;;23.05;29.66;99361.53;5116212;28;20388;-68
2022/05/28 12:55:01;;;;;;;0.40;0.40;;;;;;;23.02;29.60;99361.69;5116188;28;20501;-69
2022/05/28 12:57:36;;;;;;;0.70;0.70;;;;;;;23.12;29.19;99362.84;5116044;28;20044;-68
2022/05/28 13:00:27;;;;;;;0.40;0.40;;;;;;;23.12;29.18;99357.66;5116428;28;20047;-70
2022/05/28 13:02:59;;;;;;;0.40;0.40;;;;;;;22.94;29.33;99333.47;5115996;28;20046;-69
2022/05/28 13:05:34;;;;;;;0.50;0.50;;;;;;;22.91;29.32;99359.72;5115538;28;20092;-68
2022/05/28 13:08:09;;;;;;;0.60;0.60;;;;;;;22.93;30.00;99351.78;5115625;28;20032;-68
2022/05/28 13:10:45;;;;;;;0.50;0.50;;;;;;;22.92;29.82;99350.09;5115596;28;20435;-70
2022/05/28 13:13:48;;;;;;;1.58;0.77;;;;;;;23.05;30.34;99348.50;5115519;28;20085;-70
2022/05/28 13:16:31;;;;;;;0.40;0.40;;;;;;;22.96;29.54;99339.44;5115358;28;20039;-68
2022/05/28 13:19:22;;;;;;;0.50;0.50;;;;;;;22.94;30.69;99343.06;5115387;28;20576;-67
2022/05/28 13:22:03;;;;;;;0.45;0.45;;;;;;;22.93;29.56;99331.81;5115734;28;20036;-67
2022/05/28 13:25:00;;;;;;;0.47;0.47;;;;;;;22.88;30.34;99327.78;5115497;28;20530;-66
2022/05/28 13:27:48;;;;;;;0.60;0.60;;;;;;;23.02;31.01;99333.91;5115431;28;20400;-68
2022/05/28 13:30:20;;;;;;;3.72;0.93;;;;;;;23.30;31.12;99325.31;5115412;28;20047;-68
2022/05/28 13:32:52;;;;;;;0.50;0.50;;;;;;;23.31;30.11;99327.84;5115465;28;20043;-68
2022/05/28 13:35:22;;;;;;;0.65;0.65;;;;;;;23.22;29.78;99328.41;5115352;28;20052;-68
2022/05/28 13:37:57;;;;;;;0.43;0.43;;;;;;;23.25;30.37;99333.41;5115351;28;20053;-67
2022/05/28 13:40:30;;;;;;;0.55;0.55;;;;;;;23.06;29.70;99319.75;5115227;28;20071;-68
2022/05/28 13:43:08;;;;;;;0.50;0.50;;;;;;;23.04;29.61;99325.97;5114943;28;20047;-68
2022/05/28 13:45:41;;;;;;;0.47;0.47;;;;;;;23.06;29.78;99331.97;5114868;28;20075;-69
2022/05/28 13:48:13;;;;;;;0.45;0.45;;;;;;;23.08;29.74;99335.31;5114850;28;20052;-67
2022/05/28 13:50:44;;;;;;;0.50;0.50;;;;;;;23.04;29.46;99332.03;5114999;28;20127;-69
2022/05/28 13:53:22;;;;;;;0.50;0.50;;;;;;;22.93;29.21;99328.38;5115048;28;20071;-67
2022/05/28 13:55:58;;;;;;;0.47;0.47;;;;;;;22.85;28.89;99328.81;5114627;28;20050;-69
2022/05/28 13:58:32;;;;;;;0.50;0.50;;;;;;;22.75;28.48;99325.03;5114345;28;20130;-67
2022/05/28 14:01:03;;;;;;;0.40;0.40;;;;;;;22.70;28.63;99318.44;5114648;28;20039;-68
2022/05/28 14:03:35;;;;;;;0.90;0.90;;;;;;;22.76;30.12;99315.47;5096560;28;20060;-68
2022/05/28 14:06:13;;;;;;;0.32;0.32;;;;;;;22.79;30.40;99313.53;5115052;28;20040;-69
2022/05/28 14:08:44;;;;;;;0.60;0.60;;;;;;;22.87;29.93;99320.91;5114568;28;20047;-69
2022/05/28 14:11:20;;;;;;;0.60;0.60;;;;;;;22.62;29.47;99324.91;5114641;28;20039;-68
2022/05/28 14:13:53;;;;;;;0.60;0.60;;;;;;;22.37;30.01;99334.06;5114324;28;20058;-70
2022/05/28 14:16:27;;;;;;;0.65;0.65;;;;;;;22.07;30.03;99339.19;5114634;28;20135;-68
2022/05/28 14:18:59;;;;;;;0.57;0.57;;;;;;;21.95;30.68;99339.81;5114238;28;20073;-69
2022/05/28 14:21:33;;;;;;;0.40;0.40;;;;;;;21.64;30.71;99353.53;5114257;28;20040;-69
2022/05/28 14:24:20;;;;;;;0.57;0.57;;;;;;;21.36;30.76;99346.25;5114583;28;20047;-70
2022/05/28 14:26:51;;;;;;;0.50;0.50;;;;;;;21.35;31.71;99344.56;5114462;28;20463;-69
2022/05/28 14:29:25;;;;;;;0.50;0.50;;;;;;;21.31;31.70;99342.22;5114199;28;20055;-68
2022/05/28 14:31:55;;;;;;;0.75;0.75;;;;;;;21.35;31.82;99339.38;5114081;28;20089;-68
2022/05/28 14:34:25;;;;;;;0.50;0.50;;;;;;;21.44;31.83;99337.25;5114076;28;20052;-69
2022/05/28 14:36:59;;;;;;;0.50;0.50;;;;;;;21.51;31.92;99343.81;5113998;28;20130;-68
2022/05/28 14:39:31;;;;;;;0.50;0.50;;;;;;;21.70;32.68;99339.38;5114027;28;20051;-68
2022/05/28 14:42:06;;;;;;;0.80;0.80;;;;;;;21.76;31.71;99334.69;5114046;28;20052;-68
2022/05/28 14:44:39;;;;;;;0.40;0.40;;;;;;;21.86;31.87;99327.28;5113990;28;20048;-68
2022/05/28 14:47:21;;;;;;;0.80;0.80;;;;;;;21.84;32.28;99329.97;5113844;28;20523;-68
2022/05/28 14:49:54;;;;;;;0.68;0.68;;;;;;;21.83;32.09;99330.03;5114070;28;20489;-67
2022/05/28 14:52:32;;;;;;;1.10;1.00;;;;;;;21.67;32.31;99334.31;5114085;28;20094;-68
2022/05/28 14:55:12;;;;;;;0.50;0.50;;;;;;;21.77;33.41;99346.75;5114267;28;20043;-67
2022/05/28 14:57:43;;;;;;;0.50;0.50;;;;;;;21.54;32.54;99328.09;5114128;28;20051;-68
2022/05/28 15:00:17;;;;;;;0.50;0.50;;;;;;;21.59;32.19;99344.28;5113762;28;20093;-68
2022/05/28 15:02:47;;;;;;;1.48;1.10;;;;;;;21.43;32.18;99345.97;5114147;28;20126;-67
2022/05/28 15:05:31;;;;;;;0.43;0.43;;;;;;;21.12;32.42;99347.47;5114031;28;20098;-68
2022/05/28 15:08:02;;;;;;;0.60;0.60;;;;;;;20.96;32.85;99346.50;5113304;28;20122;-69
2022/05/28 15:10:42;;;;;;;0.60;0.60;;;;;;;20.77;33.28;99348.31;5118064;28;20548;-68
2022/05/28 15:13:16;;;;;;;0.60;0.60;;;;;;;20.66;33.41;99350.56;5117877;28;20047;-69
2022/05/28 15:15:47;;;;;;;0.40;0.40;;;;;;;20.57;33.53;99348.38;5118143;28;20044;-67
2022/05/28 15:18:17;;;;;;;0.50;0.50;;;;;;;20.49;33.94;99347.94;5118044;28;20493;-69
2022/05/28 15:21:01;;;;;;;0.50;0.50;;;;;;;20.11;33.82;99302.16;5099569;28;20131;-68
2022/05/28 15:23:34;;;;;;;0.50;0.50;;;;;;;20.41;34.21;99355.22;5117840;28;20492;-68
2022/05/28 15:26:04;;;;;;;0.40;0.40;;;;;;;20.37;34.37;99354.50;5117954;28;20051;-68
2022/05/28 15:28:32;;;;;;;;;;;;;;;20.05;34.66;99298.94;5117995;28;20060;-67
2022/05/28 15:31:03;;;;;;;0.50;0.50;;;;;;;20.32;34.63;99358.22;5117379;28;19951;-68
2022/05/28 15:33:32;;;;;;;0.43;0.43;;;;;;;20.28;34.61;99351.47;5117536;28;20456;-67
2022/05/28 15:38:40;;;;;;;1.00;1.00;;;;;;;20.08;35.12;99348.94;5117757;28;20410;-68
2022/05/28 15:41:14;;;;;;;0.35;0.35;;;;;;;20.08;35.83;99350.59;5117308;28;20036;-68
2022/05/28 15:43:43;;;;;;;0.50;0.50;;;;;;;20.14;35.47;99346.03;5117628;28;20172;-68
2022/05/28 15:46:14;;;;;;;0.40;0.40;;;;;;;20.18;35.54;99335.47;5117455;28;20047;-68
2022/05/28 15:48:44;;;;;;;0.73;0.57;;;;;;;20.17;35.07;99339.00;5116929;28;20056;-67
2022/05/28 15:51:19;;;;;;;0.50;0.50;;;;;;;20.27;34.62;99334.25;5117132;28;20043;-66
2022/05/28 15:53:48;;;;;;;0.68;0.68;;;;;;;20.38;35.28;99332.00;5117094;28;20052;-67
2022/05/28 15:56:18;;;;;;;0.50;0.50;;;;;;;20.38;34.70;99329.41;5117043;28;20047;-66
2022/05/28 15:58:48;;;;;;;0.45;0.45;;;;;;;20.37;34.21;99327.75;5117303;28;20545;-68
2022/05/28 16:01:21;;;;;;;0.60;0.60;;;;;;;20.42;34.35;99328.38;5116922;28;20069;-67
2022/05/28 16:03:56;;;;;;;0.50;0.50;;;;;;;20.41;33.98;99327.53;5116965;28;20043;-66
2022/05/28 16:06:28;;;;;;;0.60;0.60;;;;;;;20.43;33.86;99330.03;5117146;28;20145;-68
2022/05/28 16:08:57;;;;;;;0.50;0.50;;;;;;;20.39;33.66;99323.34;5116823;28;20050;-67
2022/05/28 16:11:28;;;;;;;0.50;0.50;;;;;;;20.35;34.38;99317.44;5116649;28;20050;-67
2022/05/28 16:13:59;;;;;;;0.50;0.50;;;;;;;20.19;34.14;99320.75;5116995;28;20051;-67
2022/05/28 16:16:29;;;;;;;0.45;0.45;;;;;;;20.09;34.19;99317.75;5116994;28;20138;-69
2022/05/28 16:18:59;;;;;;;0.55;0.55;;;;;;;20.11;34.39;99317.69;5117324;28;20048;-68
2022/05/28 16:21:28;;;;;;;0.70;0.70;;;;;;;20.15;35.11;99324.41;5116517;28;20500;-68
2022/05/28 16:24:09;;;;;;;0.60;0.60;;;;;;;20.10;34.58;99321.19;5116790;28;20039;-68
2022/05/28 16:26:38;;;;;;;0.68;0.60;;;;;;;20.08;34.00;99323.00;5116757;28;20069;-68
2022/05/28 16:29:07;;;;;;;0.50;0.50;;;;;;;20.05;33.71;99314.47;5116291;28;20085;-67
2022/05/28 16:31:38;;;;;;;0.50;0.50;;;;;;;20.00;33.42;99310.41;5116389;28;20075;-68
2022/05/28 16:34:10;;;;;;;0.50;0.50;;;;;;;19.99;32.95;99319.91;5116313;28;20043;-67
2022/05/28 16:36:39;;;;;;;0.50;0.50;;;;;;;19.88;32.83;99327.34;5116302;28;20397;-68
2022/05/28 16:39:09;;;;;;;0.50;0.50;;;;;;;19.81;32.88;99320.75;5116257;28;20550;-67
2022/05/28 16:41:39;;;;;;;0.50;0.50;;;;;;;19.69;33.12;99334.22;5116333;28;20486;-67
2022/05/28 16:44:17;;;;;;;0.50;0.50;;;;;;;19.66;33.54;99336.94;5116481;28;20052;-67
2022/05/28 16:46:47;;;;;;;0.70;0.70;;;;;;;19.73;33.60;99328.00;5115971;28;20458;-68
2022/05/28 16:49:17;;;;;;;0.50;0.50;;;;;;;19.67;33.71;99335.19;5116039;28;20047;-68
2022/05/28 16:52:03;;;;;;;0.50;0.50;;;;;;;19.65;33.34;99339.59;5116195;28;20097;-68
2022/05/28 16:54:33;;;;;;;0.50;0.50;;;;;;;19.63;32.88;99342.25;5115953;28;20506;-67
2022/05/28 16:57:03;;;;;;;0.60;0.60;;;;;;;19.66;33.06;99342.13;5116242;28;20039;-67
2022/05/28 16:59:32;;;;;;;0.50;0.50;;;;;;;19.68;33.05;99345.47;5098186;28;20098;-67
2022/05/28 17:02:03;;;;;;;0.50;0.50;;;;;;;19.62;32.55;99348.34;5097358;28;20393;-69
2022/05/28 17:04:32;;;;;;;0.50;0.50;;;;;;;19.62;32.55;99348.34;5115483;28;20043;-70
2022/05/28 17:07:01;;;;;;;0.50;0.50;;;;;;;19.64;33.12;99349.13;5115823;28;20089;-69
2022/05/28 17:09:31;;;;;;;1.92;0.68;;;;;;;19.64;33.55;99353.44;5115436;28;20067;-69
2022/05/28 17:12:00;;;;;;;0.50;0.50;;;;;;;19.59;32.85;99352.78;5115685;28;20031;-68
2022/05/28 17:14:29;;;;;;;0.60;0.60;;;;;;;19.53;33.07;99361.66;5115441;28;20043;-69
2022/05/28 17:16:58;;;;;;;0.45;0.45;;;;;;;19.57;32.90;99352.88;5115399;28;20094;-69
2022/05/28 17:19:29;;;;;;;0.50;0.50;;;;;;;19.54;32.84;99358.16;5115416;28;20044;-68
2022/05/28 17:21:58;;;;;;;0.40;0.40;;;;;;;19.55;33.01;99364.19;5115603;28;20523;-69
2022/05/28 17:24:30;;;;;;;0.65;0.65;;;;;;;19.54;33.14;99368.53;5115323;28;20069;-69
2022/05/28 17:27:00;;;;;;;0.60;0.60;;;;;;;19.49;33.21;99367.88;5115412;28;20422;-69
2022/05/28 17:29:30;;;;;;;0.50;0.50;;;;;;;19.39;33.51;99369.16;5115174;28;20489;-69
2022/05/28 17:32:02;;;;;;;0.55;0.55;;;;;;;19.40;34.07;99373.44;5113966;28;20047;-68
2022/05/28 17:34:33;;;;;;;0.60;0.60;;;;;;;19.38;33.80;99377.84;5115136;28;20109;-68
2022/05/28 17:37:04;;;;;;;0.90;0.90;;;;;;;19.31;33.89;99384.16;5115442;28;20512;-67
2022/05/28 17:39:34;;;;;;;0.88;0.88;;;;;;;19.23;33.64;99378.44;5115297;28;20032;-70
2022/05/28 17:42:04;;;;;;;0.47;0.47;;;;;;;19.18;33.48;99375.19;5114989;28;20043;-69
2022/05/28 17:44:33;;;;;;;0.95;0.82;;;;;;;19.16;33.33;99374.41;5115049;28;20043;-69
2022/05/28 17:47:02;;;;;;;0.73;0.73;;;;;;;18.97;33.32;99361.38;5114681;28;20161;-69
2022/05/28 17:49:32;;;;;;;0.70;0.70;;;;;;;19.02;33.42;99379.31;5096960;28;20362;-68
2022/05/28 17:52:01;;;;;;;0.77;0.77;;;;;;;18.91;34.15;99371.13;5115154;28;20500;-68
2022/05/28 17:54:30;;;;;;;0.50;0.50;;;;;;;18.87;35.07;99379.91;5114703;28;20036;-68
2022/05/28 17:57:08;;;;;;;0.50;0.50;;;;;;;18.79;35.13;99387.13;5114674;28;20097;-69
2022/05/28 17:59:37;;;;;;;0.60;0.60;;;;;;;18.71;35.89;99393.41;5114937;28;20458;-68
2022/05/28 18:02:20;;;;;;;0.40;0.40;;;;;;;18.52;36.25;99386.44;5114580;28;20067;-69
2022/05/28 18:04:52;;;;;;;0.40;0.40;;;;;;;18.49;36.82;99392.56;5114942;28;20039;-69
2022/05/28 18:07:22;;;;;;;0.63;0.63;;;;;;;18.48;37.32;99398.63;5114875;28;20047;-68
2022/05/28 18:09:53;;;;;;;0.63;0.60;;;;;;;18.42;37.45;99392.81;5114467;28;20507;-69
2022/05/28 18:12:23;;;;;;;0.50;0.50;;;;;;;18.36;38.35;99393.88;5114726;28;20059;-69
2022/05/28 18:14:52;;;;;;;0.60;0.60;;;;;;;18.26;38.90;99396.84;5114666;28;20043;-68
2022/05/28 18:17:27;;;;;;;0.50;0.50;;;;;;;18.16;39.61;99409.25;5114378;28;20044;-69
2022/05/28 18:20:01;;;;;;;0.52;0.52;;;;;;;18.01;39.45;99417.53;5114938;28;20047;-69
2022/05/28 18:22:30;;;;;;;3.08;0.65;;;;;;;17.90;39.86;99410.16;5114356;28;20061;-68
2022/05/28 18:25:04;;;;;;;0.40;0.40;;;;;;;17.85;40.15;99409.47;5114171;28;20139;-69
2022/05/28 18:27:39;;;;;;;0.55;0.55;;;;;;;17.76;40.49;99416.69;5114471;28;20043;-69
2022/05/28 18:30:12;;;;;;;0.50;0.50;;;;;;;17.66;41.03;99420.50;5114217;28;20047;-69
2022/05/28 18:32:42;;;;;;;0.50;0.50;;;;;;;17.39;41.93;99423.06;5113952;28;20052;-69
2022/05/28 18:35:13;;;;;;;0.50;0.50;;;;;;;17.20;42.89;99427.09;5114303;28;20067;-69
2022/05/28 18:37:45;;;;;;;0.57;0.57;;;;;;;16.93;43.43;99430.56;5113977;28;20055;-68
2022/05/28 18:40:19;;;;;;;0.50;0.50;;;;;;;16.73;44.37;99435.44;5113968;28;20108;-68
2022/05/28 18:42:48;;;;;;;0.60;0.60;;;;;;;16.55;45.17;99436.84;5113810;28;20093;-69
2022/05/28 18:45:17;;;;;;;0.77;0.75;;;;;;;16.29;46.13;99444.41;5114154;28;20450;-69
2022/05/28 18:47:46;;;;;;;1.10;1.07;;;;;;;16.12;46.56;99445.78;5113705;28;20052;-68
2022/05/28 18:50:17;;;;;;;0.52;0.52;;;;;;;16.00;47.13;99441.78;5114465;28;20779;-69
2022/05/28 18:52:48;;;;;;;0.68;0.68;;;;;;;15.89;46.99;99446.38;5114491;28;20104;-70
2022/05/28 18:55:20;;;;;;;4.57;1.05;;;;;;;15.66;47.58;99446.97;5114200;28;20040;-70
2022/05/28 18:57:49;;;;;;;0.50;0.50;;;;;;;15.54;48.19;99447.28;5095881;28;20056;-69
2022/05/28 19:00:18;;;;;;;0.40;0.40;;;;;;;15.45;48.70;99457.78;5113714;28;20048;-70
2022/05/28 19:02:47;;;;;;;0.50;0.50;;;;;;;15.34;49.66;99459.72;5113732;28;20114;-69
2022/05/28 19:05:18;;;;;;;1.17;0.73;;;;;;;15.15;49.99;99458.44;5113684;28;20040;-70